Aeroporto :
LOGIN :

Iscrizione | Disclaimer

   EN    FR    IT 

 










Sommario :    VFR   VFR Marginale   IFR   IFR Intensivo   IFR Molto Intensivo
Visibilità : 
Base nubi : 
>= 8 km
>= 3000ft
5 / 8 km
1000 / 3000 ft
1500m / 5 km
500 / 1000 ft
800 / 1500m
200 / 500 ft
< 800m
< 200 ft
Simboli :   Temporali  Nebbia  Neve Forte  Precipitazioni Forti  Vento > 20 kt
SIGMETs :   Varie  Temporali  Ghiacco  Turbolenza  Onda orograficha  Ceneri Vulcaniche






- Altitudine del aeroporto : 602 ft
- Codice IATA : NVS


LFQG - Nevers

ULTIMO METAR :
  • 171530Z AUTO 32003KT 9999 OVC043 07/04 Q1008

METARs OBSOLETI :
  • 171500Z AUTO 31005KT 9999 FEW018 SCT031 OVC037 07/04 Q1008
  • 171430Z AUTO 31007KT 9999 FEW020 BKN027 OVC039 07/04 Q1008
  • 171400Z AUTO 32008KT 9999 BKN019 BKN028 OVC035 07/04 Q1008
  • 171330Z AUTO 34006KT 9999 FEW017 BKN026 BKN040 07/04 Q1008
  • 171300Z AUTO 31007KT 9999 BKN015 OVC020 07/04 Q1008
  • 171230Z AUTO 31006KT 280V360 9999 OVC013 07/04 Q1008

TAF N/A



MetMap, La meteo Aeronautica in un colpo d'occhio ! - Copyright ORBIFLY Dicembre 2007 - Disclaimer

ORBIFLY MET'MAP TEAM :

Programmazione e sviluppo : Alexandra Zaïnal
Concezione e sviluppo : Baudouin d'Aumeries
Co-Programmazione e sviluppo : Marc-Olivier Méhu
Supporto tecnico e logistico : Manuel Goepfert
Aiuto per la traduzione : Arnaldo La Scala

Contatto : metmap@orbifly.com




FONTI E CREDITI :

   NOAA